Time;durP1;ratioP1;P1;durP2;ratioP2;P2;SDS_P1;SDS_P2;PMS_P1;PMS_P2;Temp;Humidity;BMP_temperature;BMP_pressure;BME280_temperature;BME280_humidity;BME280_pressure;Samples;Min_cycle;Max_cycle;Signal;HPM_P1;HPM_P2
2021/12/28 00:01:17;;;;;;;16.42;10.35;;;20.10;95.10;;;;;;4175785;28;20047;-63
2021/12/28 00:03:22;;;;;;;22.02;10.50;;;19.90;95.50;;;;;;4177579;28;20059;-64
2021/12/28 00:05:27;;;;;;;20.75;10.85;;;19.90;95.50;;;;;;4177411;28;20049;-65
2021/12/28 00:07:31;;;;;;;24.55;10.57;;;19.80;95.60;;;;;;4177320;28;20303;-63
2021/12/28 00:09:36;;;;;;;21.13;11.77;;;19.80;95.80;;;;;;4185051;28;20072;-64
2021/12/28 00:11:41;;;;;;;23.35;11.93;;;19.60;95.90;;;;;;4177041;28;20115;-64
2021/12/28 00:13:45;;;;;;;18.77;10.63;;;19.60;96.10;;;;;;4182033;28;20098;-64
2021/12/28 00:18:04;;;;;;;20.45;10.30;;;19.80;95.80;;;;;;4175353;28;20053;-64
2021/12/28 00:20:09;;;;;;;16.00;10.13;;;20.00;95.60;;;;;;4186126;28;20076;-64
2021/12/28 00:22:13;;;;;;;17.38;9.80;;;20.10;95.30;;;;;;4176558;28;20041;-64
2021/12/28 00:24:18;;;;;;;16.67;9.95;;;20.00;95.50;;;;;;4185655;28;20049;-64
2021/12/28 00:26:24;;;;;;;20.30;10.15;;;20.00;95.10;;;;;;4176665;28;20538;-64
2021/12/28 00:28:28;;;;;;;20.58;10.90;;;20.00;95.50;;;;;;4177134;28;20037;-64
2021/12/28 00:30:33;;;;;;;21.33;9.82;;;20.00;95.40;;;;;;4176750;28;20140;-63
2021/12/28 00:32:38;;;;;;;15.40;10.13;;;20.00;95.20;;;;;;4172371;28;20393;-64
2021/12/28 00:34:42;;;;;;;16.77;9.77;;;20.10;95.10;;;;;;4171369;28;20073;-63
2021/12/28 00:36:47;;;;;;;19.13;10.35;;;20.20;95.00;;;;;;4174583;28;20053;-63
2021/12/28 00:38:52;;;;;;;23.27;10.50;;;20.20;95.00;;;;;;4175936;28;20072;-64
2021/12/28 00:40:58;;;;;;;19.90;10.38;;;20.20;94.90;;;;;;4173104;28;20055;-62
2021/12/28 00:43:03;;;;;;;27.95;12.10;;;20.20;95.10;;;;;;4175891;28;20048;-64
2021/12/28 00:45:08;;;;;;;32.15;17.17;;;20.40;94.90;;;;;;4176740;28;20079;-63
2021/12/28 00:47:13;;;;;;;47.80;20.98;;;20.50;94.80;;;;;;4175667;28;20041;-63
2021/12/28 00:49:17;;;;;;;35.70;18.55;;;20.60;94.40;;;;;;4177090;28;20040;-65
2021/12/28 00:51:22;;;;;;;45.80;21.45;;;20.60;94.10;;;;;;4176407;28;20045;-65
2021/12/28 00:53:27;;;;;;;34.40;18.02;;;20.50;94.30;;;;;;4175605;28;20057;-63
2021/12/28 00:55:31;;;;;;;30.00;16.88;;;20.60;93.90;;;;;;4177033;28;20095;-64
2021/12/28 00:57:36;;;;;;;33.20;17.33;;;20.50;94.40;;;;;;4175886;28;20479;-64
2021/12/28 00:59:40;;;;;;;31.10;17.67;;;20.50;94.30;;;;;;4175128;28;20085;-64
2021/12/28 01:01:47;;;;;;;24.27;14.82;;;20.50;94.30;;;;;;4177588;28;20045;-65
2021/12/28 01:03:51;;;;;;;26.15;13.45;;;20.60;94.30;;;;;;4173538;28;20379;-65
2021/12/28 01:05:57;;;;;;;19.85;12.27;;;20.60;94.20;;;;;;4172294;28;20045;-63
2021/12/28 01:08:02;;;;;;;24.02;12.20;;;20.60;94.50;;;;;;4175570;28;20045;-64
2021/12/28 01:10:10;;;;;;;23.35;12.73;;;20.70;93.90;;;;;;4178204;28;20057;-64
2021/12/28 01:12:15;;;;;;;25.52;13.60;;;20.80;93.90;;;;;;4173886;28;20048;-65
2021/12/28 01:14:20;;;;;;;21.45;13.77;;;20.90;93.70;;;;;;4174999;28;20471;-65
2021/12/28 01:16:24;;;;;;;26.02;15.30;;;20.90;93.60;;;;;;4176004;28;20095;-64
2021/12/28 01:18:28;;;;;;;23.63;14.20;;;21.00;93.30;;;;;;4168840;28;20049;-64
2021/12/28 01:20:38;;;;;;;25.13;13.93;;;21.00;93.10;;;;;;4172577;28;20044;-63
2021/12/28 01:22:43;;;;;;;22.15;10.90;;;20.80;93.20;;;;;;4170687;28;20040;-64
2021/12/28 01:24:47;;;;;;;15.48;10.75;;;20.80;93.20;;;;;;4174807;28;20069;-64
2021/12/28 01:26:52;;;;;;;16.23;10.52;;;21.00;93.00;;;;;;4172356;28;20439;-64
2021/12/28 01:28:56;;;;;;;17.15;9.98;;;20.90;93.10;;;;;;4174683;28;20434;-64
2021/12/28 01:31:01;;;;;;;13.45;9.02;;;21.00;93.00;;;;;;4174769;28;20048;-65
2021/12/28 01:33:06;;;;;;;18.67;9.13;;;20.70;93.10;;;;;;4174616;28;20192;-65
2021/12/28 01:35:11;;;;;;;16.85;10.45;;;20.90;93.00;;;;;;4173042;28;20049;-64
2021/12/28 01:37:16;;;;;;;16.38;8.30;;;21.10;93.00;;;;;;4173739;28;20172;-64
2021/12/28 01:39:20;;;;;;;14.32;8.65;;;21.20;92.20;;;;;;4175051;28;20510;-64
2021/12/28 01:41:24;;;;;;;13.63;8.48;;;21.30;92.40;;;;;;4174287;28;20111;-65
2021/12/28 01:43:29;;;;;;;17.13;9.30;;;21.40;92.50;;;;;;4176659;28;20057;-65
2021/12/28 01:45:46;;;;;;;16.75;8.55;;;21.30;92.00;;;;;;4173008;28;20053;-64
2021/12/28 01:47:50;;;;;;;11.25;7.85;;;21.30;92.20;;;;;;4174159;28;20055;-65
2021/12/28 01:49:54;;;;;;;14.32;8.70;;;21.40;91.90;;;;;;4175692;28;20051;-65
2021/12/28 01:51:59;;;;;;;18.90;9.02;;;21.40;91.90;;;;;;4174290;28;20118;-65
2021/12/28 01:54:04;;;;;;;18.55;9.85;;;21.50;91.80;;;;;;4175375;28;20049;-65
2021/12/28 01:56:11;;;;;;;15.02;8.18;;;21.50;91.60;;;;;;4167144;28;20056;-64
2021/12/28 01:58:15;;;;;;;14.65;7.95;;;21.60;91.40;;;;;;4197277;28;20044;-65
2021/12/28 02:00:19;;;;;;;12.93;7.53;;;21.80;91.50;;;;;;4175729;28;20051;-64
2021/12/28 02:02:24;;;;;;;12.48;8.40;;;21.90;91.00;;;;;;4174368;28;20041;-65
2021/12/28 02:04:29;;;;;;;20.45;10.27;;;21.80;90.90;;;;;;4174488;28;20047;-65
2021/12/28 02:06:33;;;;;;;15.65;9.57;;;21.80;91.20;;;;;;4173085;28;20052;-65
2021/12/28 02:08:38;;;;;;;12.85;7.22;;;21.80;91.50;;;;;;4173098;28;20056;-65
2021/12/28 02:10:44;;;;;;;9.23;5.50;;;22.00;90.50;;;;;;4176249;28;20045;-65
2021/12/28 02:12:48;;;;;;;13.75;9.13;;;22.10;89.80;;;;;;4172180;28;20524;-65
2021/12/28 02:14:52;;;;;;;22.17;11.73;;;22.10;90.10;;;;;;4173659;28;20045;-64
2021/12/28 02:16:57;;;;;;;19.33;9.93;;;22.10;90.40;;;;;;4172394;28;20144;-65
2021/12/28 02:19:05;;;;;;;14.38;6.63;;;22.20;90.30;;;;;;4175969;28;20041;-65
2021/12/28 02:21:09;;;;;;;8.82;4.63;;;22.30;89.70;;;;;;4171975;28;20056;-65
2021/12/28 02:23:14;;;;;;;6.72;4.57;;;22.40;88.00;;;;;;4174160;28;20048;-65
2021/12/28 02:25:18;;;;;;;11.70;5.00;;;22.40;87.40;;;;;;4175036;28;20045;-65
2021/12/28 02:27:26;;;;;;;8.00;4.45;;;22.30;87.70;;;;;;4171678;28;20388;-65
2021/12/28 02:29:31;;;;;;;8.45;4.57;;;22.40;87.80;;;;;;4171385;28;20573;-65
2021/12/28 02:31:36;;;;;;;9.35;4.32;;;22.50;87.20;;;;;;4172407;28;20041;-65
2021/12/28 02:33:40;;;;;;;9.18;4.65;;;22.50;86.40;;;;;;4174531;28;20044;-65
2021/12/28 02:35:44;;;;;;;11.25;5.68;;;22.50;86.30;;;;;;4173588;28;20048;-65
2021/12/28 02:37:49;;;;;;;11.30;4.72;;;22.50;86.40;;;;;;4173187;28;20135;-66
2021/12/28 02:39:54;;;;;;;9.38;4.25;;;22.50;85.90;;;;;;4172920;28;20476;-65
2021/12/28 02:41:58;;;;;;;9.40;4.28;;;22.60;85.30;;;;;;4174267;28;20065;-65
2021/12/28 02:44:03;;;;;;;12.82;5.22;;;22.70;85.50;;;;;;4173052;28;20420;-66
2021/12/28 02:46:08;;;;;;;11.00;4.90;;;22.70;85.80;;;;;;4174931;28;20057;-65
2021/12/28 02:48:13;;;;;;;9.18;5.05;;;22.80;85.70;;;;;;4173026;28;20098;-66
2021/12/28 02:50:30;;;;;;;15.35;5.40;;;22.80;85.30;;;;;;4173811;28;20067;-66
2021/12/28 02:52:36;;;;;;;10.52;6.10;;;22.90;85.70;;;;;;4173921;28;20033;-66
2021/12/28 02:54:41;;;;;;;11.98;5.25;;;23.00;85.90;;;;;;4173614;28;20053;-65
2021/12/28 02:56:45;;;;;;;12.93;4.40;;;23.10;85.60;;;;;;4173465;28;20049;-64
2021/12/28 02:58:51;;;;;;;8.13;4.15;;;23.10;84.60;;;;;;4173826;28;20051;-64
2021/12/28 03:01:13;;;;;;;6.75;4.40;;;23.20;85.10;;;;;;4173145;28;20503;-65
2021/12/28 03:03:20;;;;;;;9.00;3.73;;;23.20;83.90;;;;;;4174517;28;20546;-65
2021/12/28 03:05:25;;;;;;;7.85;4.55;;;23.20;84.00;;;;;;4172542;28;20048;-65
2021/12/28 03:07:31;;;;;;;10.70;4.35;;;23.30;83.20;;;;;;4171907;28;20045;-65
2021/12/28 03:09:36;;;;;;;17.67;4.63;;;23.30;83.70;;;;;;4176173;28;20127;-65
2021/12/28 03:11:45;;;;;;;12.25;4.90;;;23.30;83.10;;;;;;4174969;28;20433;-65
2021/12/28 03:13:56;;;;;;;9.13;4.50;;;23.40;83.90;;;;;;4173674;28;20437;-65
2021/12/28 03:16:01;;;;;;;9.77;5.15;;;23.50;83.30;;;;;;4172338;28;20048;-64
2021/12/28 03:18:06;;;;;;;8.82;5.28;;;23.50;82.80;;;;;;4172365;28;20488;-64
2021/12/28 03:20:15;;;;;;;10.63;5.25;;;23.50;83.00;;;;;;4174080;28;20057;-64
2021/12/28 03:22:19;;;;;;;11.40;5.53;;;23.50;82.70;;;;;;4172359;28;20102;-64
2021/12/28 03:24:23;;;;;;;8.65;5.30;;;23.70;83.30;;;;;;4177262;28;20045;-64
2021/12/28 03:26:27;;;;;;;9.20;6.18;;;23.70;83.00;;;;;;4178570;28;20052;-64
2021/12/28 03:28:36;;;;;;;11.45;6.68;;;23.70;82.10;;;;;;4176395;28;20140;-64
2021/12/28 03:30:40;;;;;;;9.63;6.07;;;23.70;82.10;;;;;;4177550;28;20495;-64
2021/12/28 03:32:45;;;;;;;14.55;7.88;;;23.70;82.40;;;;;;4176085;28;20041;-65
2021/12/28 03:34:49;;;;;;;9.93;6.13;;;23.70;82.50;;;;;;4177362;28;20491;-63
2021/12/28 03:36:53;;;;;;;14.85;6.55;;;23.90;82.20;;;;;;4175882;28;20484;-63
2021/12/28 03:38:58;;;;;;;10.02;6.32;;;24.00;82.20;;;;;;4175798;28;20040;-63
2021/12/28 03:41:07;;;;;;;8.85;5.63;;;24.00;81.20;;;;;;4175131;28;20408;-64
2021/12/28 03:43:12;;;;;;;8.02;4.72;;;24.00;81.60;;;;;;4177746;28;20049;-64
2021/12/28 03:45:19;;;;;;;7.75;4.43;;;24.00;81.90;;;;;;4174466;28;20041;-64
2021/12/28 03:47:23;;;;;;;7.53;4.05;;;24.10;82.00;;;;;;4174496;28;20490;-64
2021/12/28 03:49:28;;;;;;;5.55;3.97;;;24.20;81.80;;;;;;4174528;28;20145;-64
2021/12/28 03:51:35;;;;;;;9.80;4.68;;;24.20;81.80;;;;;;4177046;28;20052;-64
2021/12/28 03:53:39;;;;;;;10.27;4.78;;;24.40;82.00;;;;;;4176049;28;20045;-65
2021/12/28 03:55:44;;;;;;;9.20;4.70;;;24.40;81.30;;;;;;4176686;28;20133;-65
2021/12/28 03:57:51;;;;;;;6.40;3.72;;;24.40;81.10;;;;;;4176044;28;20593;-64
2021/12/28 03:59:56;;;;;;;12.30;3.03;;;24.40;81.20;;;;;;4175903;28;20136;-64
2021/12/28 04:02:00;;;;;;;6.32;2.80;;;24.50;80.60;;;;;;4174955;28;20045;-64
2021/12/28 04:04:05;;;;;;;3.80;2.10;;;24.60;80.30;;;;;;4178261;28;20081;-64
2021/12/28 04:06:10;;;;;;;6.13;2.72;;;24.60;80.40;;;;;;4175057;28;20053;-63
2021/12/28 04:08:20;;;;;;;5.57;2.88;;;24.60;80.30;;;;;;4175749;28;20049;-64
2021/12/28 04:10:31;;;;;;;7.93;2.83;;;24.70;80.50;;;;;;4176171;28;20507;-64
2021/12/28 04:12:36;;;;;;;5.60;2.65;;;24.70;79.90;;;;;;4175806;28;20041;-65
2021/12/28 04:14:40;;;;;;;4.43;2.70;;;24.70;79.60;;;;;;4175201;28;20408;-64
2021/12/28 04:16:45;;;;;;;5.60;2.65;;;24.80;79.40;;;;;;4178214;28;20053;-63
2021/12/28 04:18:50;;;;;;;3.22;2.10;;;24.80;79.40;;;;;;4174955;28;20053;-65
2021/12/28 04:20:54;;;;;;;3.70;2.00;;;24.80;78.80;;;;;;4176626;28;20049;-64
2021/12/28 04:22:59;;;;;;;4.30;2.35;;;24.90;79.10;;;;;;4176786;28;20450;-64
2021/12/28 04:25:05;;;;;;;5.13;2.78;;;24.80;79.00;;;;;;4176554;28;20052;-64
2021/12/28 04:27:09;;;;;;;5.70;2.65;;;24.90;79.10;;;;;;4175647;28;20040;-64
2021/12/28 04:29:14;;;;;;;5.10;2.38;;;24.90;79.40;;;;;;4174858;28;20172;-64
2021/12/28 04:31:19;;;;;;;7.45;3.08;;;24.90;79.50;;;;;;4177218;28;20047;-64
2021/12/28 04:33:23;;;;;;;6.65;3.55;;;25.00;79.00;;;;;;4176912;28;20337;-64
2021/12/28 04:35:28;;;;;;;6.13;2.90;;;25.00;79.00;;;;;;4178630;28;20388;-64
2021/12/28 04:37:32;;;;;;;7.25;2.78;;;25.10;78.60;;;;;;4176116;28;20330;-63
2021/12/28 04:39:37;;;;;;;16.10;2.80;;;25.10;78.80;;;;;;4172042;28;20048;-64
2021/12/28 04:41:42;;;;;;;6.95;4.35;;;25.20;79.10;;;;;;4175789;28;20092;-63
2021/12/28 04:43:48;;;;;;;7.80;4.28;;;25.30;78.60;;;;;;4175543;28;20549;-64
2021/12/28 04:45:52;;;;;;;5.07;3.47;;;25.30;78.80;;;;;;4176027;28;20260;-64
2021/12/28 04:47:57;;;;;;;6.35;3.13;;;25.30;78.40;;;;;;4175309;28;20052;-63
2021/12/28 04:50:02;;;;;;;6.10;3.22;;;25.40;78.00;;;;;;4177369;28;20032;-64
2021/12/28 04:52:07;;;;;;;12.63;2.67;;;25.40;78.60;;;;;;4176215;28;20095;-66
2021/12/28 04:54:12;;;;;;;5.55;2.42;;;25.40;78.50;;;;;;4177605;28;20041;-64
2021/12/28 04:56:17;;;;;;;6.43;2.25;;;25.50;78.50;;;;;;4176077;28;20569;-64
2021/12/28 04:58:21;;;;;;;5.30;2.38;;;25.60;78.20;;;;;;4174995;28;20075;-65
2021/12/28 05:00:26;;;;;;;5.25;2.15;;;25.60;78.10;;;;;;4175100;28;20049;-64
2021/12/28 05:02:30;;;;;;;2.72;1.90;;;25.60;78.00;;;;;;4174427;28;20710;-64
2021/12/28 05:04:36;;;;;;;6.18;2.25;;;25.70;77.30;;;;;;4175219;28;20417;-66
2021/12/28 05:06:40;;;;;;;3.30;2.20;;;25.70;77.40;;;;;;4175361;28;20395;-66
2021/12/28 05:08:44;;;;;;;5.32;1.90;;;25.80;77.40;;;;;;4177355;28;20115;-65
2021/12/28 05:10:49;;;;;;;3.58;1.70;;;25.90;76.90;;;;;;4174682;28;20099;-65
2021/12/28 05:12:54;;;;;;;3.95;1.90;;;25.90;77.20;;;;;;4177739;28;20049;-65
2021/12/28 05:15:00;;;;;;;8.18;2.00;;;25.90;77.50;;;;;;4174153;28;20049;-66
2021/12/28 05:17:04;;;;;;;3.90;1.90;;;25.90;77.20;;;;;;4174442;28;20391;-66
2021/12/28 05:19:09;;;;;;;5.00;1.80;;;25.90;77.10;;;;;;4173599;28;20578;-66
2021/12/28 05:21:13;;;;;;;4.55;1.60;;;25.90;77.10;;;;;;4173313;28;20041;-66
2021/12/28 05:23:18;;;;;;;3.55;1.55;;;25.90;77.40;;;;;;4175189;28;20093;-66
2021/12/28 05:25:22;;;;;;;6.18;1.58;;;25.90;77.20;;;;;;4174911;28;20037;-66
2021/12/28 05:27:27;;;;;;;6.35;1.98;;;25.90;76.80;;;;;;4174598;28;20048;-66
2021/12/28 05:29:32;;;;;;;7.55;1.50;;;26.00;76.90;;;;;;4174316;28;20107;-66
2021/12/28 05:31:36;;;;;;;4.82;1.70;;;26.00;76.60;;;;;;4177597;28;20095;-64
2021/12/28 05:33:41;;;;;;;5.63;1.77;;;26.00;76.90;;;;;;4173165;28;20044;-65
2021/12/28 05:35:46;;;;;;;2.75;1.60;;;26.00;76.90;;;;;;4174267;28;20041;-64
2021/12/28 05:37:50;;;;;;;4.55;1.63;;;26.00;76.90;;;;;;4175828;28;20111;-65
2021/12/28 05:39:55;;;;;;;3.15;2.10;;;26.10;77.10;;;;;;4173672;28;20128;-65
2021/12/28 05:42:01;;;;;;;4.90;2.00;;;26.20;76.50;;;;;;4173887;28;20053;-63
2021/12/28 05:44:06;;;;;;;5.53;2.10;;;26.20;77.50;;;;;;4173716;28;20144;-65
2021/12/28 05:46:11;;;;;;;4.55;2.63;;;26.20;77.20;;;;;;4170369;28;20051;-60
2021/12/28 05:48:16;;;;;;;6.60;2.97;;;26.30;76.40;;;;;;4174195;28;20114;-65
2021/12/28 05:50:20;;;;;;;6.68;2.65;;;26.30;76.40;;;;;;4171111;28;20503;-64
2021/12/28 05:52:28;;;;;;;5.90;2.22;;;26.40;75.30;;;;;;4172054;28;20055;-64
2021/12/28 05:54:33;;;;;;;4.15;2.20;;;26.40;75.90;;;;;;4173182;28;20060;-64
2021/12/28 05:56:38;;;;;;;5.53;2.22;;;26.40;76.20;;;;;;4173291;28;20518;-64
2021/12/28 05:58:42;;;;;;;3.30;1.70;;;26.50;75.60;;;;;;4174734;28;20114;-64
2021/12/28 06:00:46;;;;;;;8.30;2.15;;;26.50;75.00;;;;;;4173153;28;20075;-64
2021/12/28 06:02:51;;;;;;;2.72;1.75;;;26.40;75.10;;;;;;4173244;28;20147;-64
2021/12/28 06:04:56;;;;;;;4.18;2.03;;;26.40;75.80;;;;;;4174593;28;20053;-65
2021/12/28 06:07:00;;;;;;;5.88;2.40;;;26.50;75.30;;;;;;4173028;28;20056;-65
2021/12/28 06:09:05;;;;;;;4.60;2.15;;;26.50;75.40;;;;;;4172080;28;20098;-64
2021/12/28 06:11:12;;;;;;;3.80;2.38;;;26.60;75.80;;;;;;4173204;28;20048;-64
2021/12/28 06:13:17;;;;;;;5.97;2.28;;;26.60;76.40;;;;;;4174740;28;20364;-64
2021/12/28 06:15:22;;;;;;;6.32;2.40;;;26.60;75.50;;;;;;4173979;28;20595;-66
2021/12/28 06:17:26;;;;;;;7.40;2.45;;;26.60;75.90;;;;;;4173388;28;20554;-64
2021/12/28 06:19:30;;;;;;;6.50;2.17;;;26.70;75.20;;;;;;4175709;28;20180;-62
2021/12/28 06:21:35;;;;;;;4.38;2.30;;;26.70;74.80;;;;;;4172274;28;20059;-63
2021/12/28 06:23:39;;;;;;;5.70;2.00;;;26.70;75.20;;;;;;4175280;28;20458;-64
2021/12/28 06:25:44;;;;;;;7.00;2.58;;;26.60;75.20;;;;;;4173198;28;20195;-64
2021/12/28 06:27:49;;;;;;;5.00;2.55;;;26.70;75.60;;;;;;4173839;28;20053;-64
2021/12/28 06:29:53;;;;;;;4.60;2.60;;;26.70;74.90;;;;;;4170075;28;20053;-62
2021/12/28 06:31:58;;;;;;;5.60;2.20;;;26.80;74.60;;;;;;4171839;28;20057;-64
2021/12/28 06:34:04;;;;;;;5.97;2.67;;;26.80;74.80;;;;;;4174371;28;20191;-64
2021/12/28 06:36:09;;;;;;;5.63;2.58;;;26.80;75.10;;;;;;4174389;28;20041;-64
2021/12/28 06:38:13;;;;;;;3.15;2.08;;;26.90;75.80;;;;;;4176735;28;20068;-65
2021/12/28 06:40:17;;;;;;;4.50;1.50;;;27.00;75.40;;;;;;4174008;28;20049;-65
2021/12/28 06:42:22;;;;;;;5.38;2.05;;;27.00;74.60;;;;;;4173847;28;20541;-65
2021/12/28 06:44:26;;;;;;;3.35;1.80;;;27.00;74.40;;;;;;4173546;28;20053;-65
2021/12/28 06:46:31;;;;;;;5.15;2.10;;;27.00;74.50;;;;;;4176152;28;20453;-65
2021/12/28 06:48:35;;;;;;;5.00;2.53;;;27.00;74.90;;;;;;4174456;28;20099;-65
2021/12/28 06:50:40;;;;;;;8.68;2.22;;;27.00;74.70;;;;;;4174061;28;20084;-65
2021/12/28 06:52:45;;;;;;;3.20;2.05;;;27.00;74.90;;;;;;4172666;28;20115;-65
2021/12/28 06:54:49;;;;;;;4.10;1.98;;;27.00;75.10;;;;;;4175549;28;20479;-65
2021/12/28 06:56:54;;;;;;;5.88;1.73;;;27.00;74.80;;;;;;4174334;28;20076;-65
2021/12/28 06:58:58;;;;;;;5.22;1.60;;;27.10;74.30;;;;;;4176023;28;20080;-65
2021/12/28 07:01:03;;;;;;;6.63;2.03;;;27.10;74.50;;;;;;4178025;28;20044;-66
2021/12/28 07:03:08;;;;;;;7.32;1.70;;;27.10;74.90;;;;;;4177150;28;20438;-65
2021/12/28 07:05:13;;;;;;;3.63;1.90;;;27.10;75.60;;;;;;4180157;28;20407;-65
2021/12/28 07:07:17;;;;;;;5.78;1.80;;;27.20;73.90;;;;;;4179697;28;20063;-65
2021/12/28 07:09:21;;;;;;;3.92;1.70;;;27.20;74.40;;;;;;4179147;28;20036;-64
2021/12/28 07:11:26;;;;;;;3.85;2.17;;;27.20;74.30;;;;;;4178068;28;20053;-65
2021/12/28 07:13:30;;;;;;;7.88;2.30;;;27.30;74.60;;;;;;4177352;28;20048;-65
2021/12/28 07:15:34;;;;;;;3.53;1.88;;;27.30;74.50;;;;;;4178823;28;20405;-65
2021/12/28 07:17:40;;;;;;;4.57;1.50;;;27.30;74.30;;;;;;4177481;28;20188;-65
2021/12/28 07:19:46;;;;;;;3.85;1.45;;;27.30;73.60;;;;;;4179932;28;20246;-65
2021/12/28 07:21:50;;;;;;;3.58;1.60;;;27.20;74.00;;;;;;4175915;28;20491;-65
2021/12/28 07:23:54;;;;;;;4.88;1.88;;;27.20;74.20;;;;;;4177738;28;20484;-65
2021/12/28 07:25:59;;;;;;;7.13;1.88;;;27.20;74.40;;;;;;4177824;28;20088;-65
2021/12/28 07:28:11;;;;;;;3.75;1.35;;;27.20;74.10;;;;;;4177893;28;20083;-66
2021/12/28 07:30:20;;;;;;;2.45;1.70;;;27.20;74.20;;;;;;4178318;28;20541;-66
2021/12/28 07:32:25;;;;;;;2.13;1.40;;;27.20;74.30;;;;;;4175947;28;20045;-66
2021/12/28 07:34:31;;;;;;;4.38;2.33;;;27.30;74.70;;;;;;4177075;28;20069;-67
2021/12/28 07:36:35;;;;;;;4.72;3.38;;;27.30;74.60;;;;;;4177867;28;20032;-67
2021/12/28 07:38:39;;;;;;;7.45;4.20;;;27.30;74.20;;;;;;4178369;28;20049;-66
2021/12/28 07:40:45;;;;;;;5.90;3.80;;;27.30;74.40;;;;;;4177852;28;20041;-66
2021/12/28 07:42:50;;;;;;;6.43;3.55;;;27.30;74.30;;;;;;4176119;28;20045;-66
2021/12/28 07:44:54;;;;;;;8.43;2.85;;;27.30;74.40;;;;;;4173812;28;20331;-66
2021/12/28 07:46:58;;;;;;;9.98;2.20;;;27.30;74.20;;;;;;4175525;28;20053;-66
2021/12/28 07:49:03;;;;;;;4.65;1.77;;;27.40;74.20;;;;;;4176720;28;20095;-66
2021/12/28 07:51:08;;;;;;;3.78;1.50;;;27.30;74.20;;;;;;4175067;28;20131;-66
2021/12/28 07:53:12;;;;;;;3.83;1.20;;;27.30;74.20;;;;;;4177098;28;20267;-64
2021/12/28 07:55:17;;;;;;;3.35;1.75;;;27.30;74.20;;;;;;4176694;28;20047;-65
2021/12/28 07:57:21;;;;;;;6.13;1.75;;;27.30;74.50;;;;;;4176290;28;20060;-65
2021/12/28 07:59:25;;;;;;;6.55;1.90;;;27.40;75.10;;;;;;4178046;28;20458;-65
2021/12/28 08:01:34;;;;;;;5.60;2.20;;;27.40;74.10;;;;;;4177165;28;20053;-66
2021/12/28 08:03:39;;;;;;;7.03;2.22;;;27.50;74.70;;;;;;4176936;28;20048;-66
2021/12/28 08:05:44;;;;;;;4.53;2.35;;;27.50;74.50;;;;;;4176575;28;20055;-66
2021/12/28 08:07:48;;;;;;;5.30;2.20;;;27.50;74.60;;;;;;4174782;28;20394;-65
2021/12/28 08:09:53;;;;;;;2.03;1.48;;;27.50;75.20;;;;;;4174395;28;20064;-66
2021/12/28 08:11:59;;;;;;;3.20;1.50;;;27.50;74.60;;;;;;4174731;28;20052;-65
2021/12/28 08:14:04;;;;;;;3.90;1.50;;;27.50;74.20;;;;;;4175665;28;20136;-65
2021/12/28 08:16:08;;;;;;;9.90;1.67;;;27.50;74.20;;;;;;4171496;28;20483;-64
2021/12/28 08:18:13;;;;;;;8.23;1.60;;;27.50;74.00;;;;;;4177228;28;20460;-65
2021/12/28 08:20:18;;;;;;;3.25;1.73;;;27.50;74.20;;;;;;4175086;28;20432;-64
2021/12/28 08:22:22;;;;;;;2.53;1.67;;;27.50;74.50;;;;;;4175006;28;20052;-66
2021/12/28 08:24:29;;;;;;;2.35;1.40;;;27.50;74.30;;;;;;4173981;28;20055;-65
2021/12/28 08:26:34;;;;;;;4.07;1.40;;;27.50;74.10;;;;;;4174474;28;20455;-65
2021/12/28 08:28:38;;;;;;;3.60;1.50;;;27.50;74.50;;;;;;4172144;28;20053;-65
2021/12/28 08:30:43;;;;;;;2.88;1.55;;;27.60;74.10;;;;;;4174604;28;20136;-65
2021/12/28 08:32:47;;;;;;;4.10;1.50;;;27.60;74.10;;;;;;4176419;28;20461;-65
2021/12/28 08:34:52;;;;;;;2.45;1.60;;;27.50;74.10;;;;;;4176810;28;20084;-65
2021/12/28 08:36:56;;;;;;;2.28;1.33;;;27.60;74.10;;;;;;4175720;28;20059;-65
2021/12/28 08:39:01;;;;;;;6.28;2.53;;;27.50;73.70;;;;;;4172320;28;20060;-65
2021/12/28 08:41:06;;;;;;;3.42;1.40;;;27.60;73.50;;;;;;4177221;28;20521;-65
2021/12/28 08:43:11;;;;;;;8.02;1.80;;;27.60;73.00;;;;;;4175121;28;20057;-65
2021/12/28 08:45:16;;;;;;;3.22;1.77;;;27.60;72.60;;;;;;4176431;28;20072;-65
2021/12/28 08:47:26;;;;;;;3.88;1.45;;;27.50;73.40;;;;;;4172228;28;20527;-65
2021/12/28 08:49:30;;;;;;;3.85;1.50;;;27.60;73.00;;;;;;4174857;28;20183;-65
2021/12/28 08:51:35;;;;;;;2.78;1.63;;;27.60;73.50;;;;;;4174001;28;20047;-65
2021/12/28 08:53:40;;;;;;;4.70;2.05;;;27.50;74.20;;;;;;4175096;28;20045;-65
2021/12/28 08:55:44;;;;;;;4.97;1.70;;;27.50;73.80;;;;;;4174537;28;20049;-65
2021/12/28 08:57:49;;;;;;;3.85;1.80;;;27.50;74.20;;;;;;4177391;28;20048;-65
2021/12/28 08:59:53;;;;;;;2.97;1.90;;;27.50;74.20;;;;;;4175162;28;20072;-65
2021/12/28 09:02:00;;;;;;;6.00;2.20;;;27.50;74.40;;;;;;4174892;28;20465;-65
2021/12/28 09:04:04;;;;;;;8.05;2.13;;;27.50;73.90;;;;;;4174021;28;20131;-65
2021/12/28 09:06:09;;;;;;;4.82;1.90;;;27.50;73.60;;;;;;4175216;28;20071;-65
2021/12/28 09:08:17;;;;;;;6.90;2.10;;;27.40;73.60;;;;;;4174771;28;20044;-65
2021/12/28 09:10:22;;;;;;;5.47;1.88;;;27.40;73.60;;;;;;4173249;28;20075;-65
2021/12/28 09:12:26;;;;;;;2.80;1.50;;;27.40;73.90;;;;;;4171751;28;20037;-65
2021/12/28 09:14:32;;;;;;;4.05;1.50;;;27.40;73.70;;;;;;4176211;28;20477;-65
2021/12/28 09:16:36;;;;;;;3.30;1.40;;;27.40;73.80;;;;;;4179586;28;20037;-66
2021/12/28 09:18:40;;;;;;;4.60;2.08;;;27.50;73.70;;;;;;4176604;28;20053;-66
2021/12/28 09:20:45;;;;;;;4.70;1.90;;;27.40;73.80;;;;;;4182487;28;20562;-66
2021/12/28 09:22:51;;;;;;;5.10;2.15;;;27.40;74.00;;;;;;4179792;28;20512;-66
2021/12/28 09:24:55;;;;;;;3.42;1.60;;;27.40;73.80;;;;;;4182340;28;20122;-66
2021/12/28 09:26:59;;;;;;;4.45;1.85;;;27.40;74.00;;;;;;4167714;28;20060;-66
2021/12/28 09:29:04;;;;;;;3.92;1.30;;;27.40;74.10;;;;;;4183743;28;20045;-66
2021/12/28 09:31:08;;;;;;;5.95;1.50;;;27.40;73.90;;;;;;4175538;28;20111;-66
2021/12/28 09:33:13;;;;;;;3.30;1.70;;;27.40;73.70;;;;;;4184673;28;20391;-66
2021/12/28 09:35:18;;;;;;;2.80;1.55;;;27.40;73.70;;;;;;4192666;28;20415;-66
2021/12/28 09:37:23;;;;;;;6.15;2.15;;;27.40;73.80;;;;;;4168606;28;20068;-66
2021/12/28 09:39:28;;;;;;;4.13;1.95;;;27.30;73.80;;;;;;4184694;28;20414;-66
2021/12/28 09:41:33;;;;;;;5.57;2.20;;;27.40;74.30;;;;;;4183425;28;20507;-66
2021/12/28 09:43:38;;;;;;;3.95;2.10;;;27.40;74.30;;;;;;4174149;28;20059;-66
2021/12/28 09:45:43;;;;;;;4.50;2.65;;;27.30;74.10;;;;;;4184015;28;20044;-66
2021/12/28 09:47:48;;;;;;;4.68;2.88;;;27.40;74.30;;;;;;4175361;28;20053;-66
2021/12/28 09:49:52;;;;;;;6.05;3.45;;;27.30;74.60;;;;;;4175368;28;20051;-66
2021/12/28 09:51:57;;;;;;;7.78;3.35;;;27.30;74.70;;;;;;4181104;28;20385;-66
2021/12/28 09:54:02;;;;;;;7.70;2.78;;;27.30;74.50;;;;;;4176423;28;20045;-66
2021/12/28 09:56:07;;;;;;;10.65;2.92;;;27.30;74.70;;;;;;4192563;28;20506;-66
2021/12/28 09:58:13;;;;;;;5.07;2.60;;;27.30;74.50;;;;;;4178929;28;20081;-66
2021/12/28 10:00:37;;;;;;;14.57;2.80;;;27.30;74.30;;;;;;4183969;28;20044;-66
2021/12/28 10:02:49;;;;;;;14.65;2.83;;;27.30;74.40;;;;;;4173065;28;20537;-66
2021/12/28 10:05:08;;;;;;;11.43;2.45;;;27.20;74.40;;;;;;4180684;28;20056;-66
2021/12/28 10:07:22;;;;;;;13.68;2.55;;;27.30;74.30;;;;;;4167082;28;20041;-66
2021/12/28 10:09:27;;;;;;;5.38;2.60;;;27.20;74.40;;;;;;4169231;28;20045;-66
2021/12/28 10:11:33;;;;;;;6.80;2.40;;;27.20;74.70;;;;;;4170158;28;20041;-66
2021/12/28 10:13:38;;;;;;;14.90;2.50;;;27.20;74.80;;;;;;4168532;28;20051;-66
2021/12/28 10:15:43;;;;;;;7.40;2.25;;;27.20;74.80;;;;;;4176622;28;20064;-66
2021/12/28 10:17:50;;;;;;;14.52;6.05;;;27.10;74.90;;;;;;4173144;28;20059;-66
2021/12/28 10:19:55;;;;;;;11.52;3.55;;;27.20;74.90;;;;;;4173309;28;20689;-66
2021/12/28 10:22:22;;;;;;;6.57;2.30;;;27.20;74.90;;;;;;4173026;28;20087;-66
2021/12/28 10:24:34;;;;;;;4.57;1.70;;;27.10;75.00;;;;;;4169395;28;20156;-66
2021/12/28 10:26:39;;;;;;;5.30;2.33;;;27.10;76.00;;;;;;4175255;28;20057;-66
2021/12/28 10:28:47;;;;;;;3.28;2.13;;;27.10;75.30;;;;;;4169302;28;20523;-66
2021/12/28 10:30:55;;;;;;;4.80;2.75;;;27.10;75.60;;;;;;4176035;28;20545;-66
2021/12/28 10:33:04;;;;;;;5.93;2.55;;;27.00;75.60;;;;;;4173540;28;20049;-66
2021/12/28 10:35:13;;;;;;;11.07;2.90;;;27.00;75.90;;;;;;4180236;28;20048;-66
2021/12/28 10:37:19;;;;;;;7.90;3.17;;;27.00;75.90;;;;;;4178822;28;20048;-66
2021/12/28 10:39:43;;;;;;;11.65;3.58;;;27.00;76.00;;;;;;4175817;28;20916;-66
2021/12/28 10:41:48;;;;;;;9.23;3.30;;;27.00;76.10;;;;;;4179050;28;20049;-66
2021/12/28 10:43:54;;;;;;;6.53;3.22;;;27.00;76.30;;;;;;4180458;28;20051;-66
2021/12/28 10:46:08;;;;;;;8.23;3.00;;;27.00;76.20;;;;;;4178711;28;20080;-66
2021/12/28 10:48:18;;;;;;;8.00;4.35;;;26.90;76.40;;;;;;4180075;28;20140;-66
2021/12/28 10:50:38;;;;;;;17.58;8.80;;;26.90;76.60;;;;;;4178337;28;20033;-66
2021/12/28 10:52:49;;;;;;;12.10;9.75;;;26.90;76.50;;;;;;4179062;28;20041;-66